Crews, Texas
Current Conditions -  °F | °C
As of 12:58 PM on Sunday 21 Dec 2014 (Local Time) from KDYS Reporting Station
Clear Clear  
Wind Chill: 15°   Ceiling: Unl
Heat Index: 15°   Visibility: 10mi
Dew Point:   Wind: 21mph
Humidity: 54%   Direction: 200°SSW
Pressure: 29.84"   Gusts: NA
Location:  31.975°N, 99.9034°W
Report Text: KDYS 211858Z AUTO 20018KT 10SM CLR 15/05 A2984 RMK AO2 PRESFR SLP094 T01460054 $
Loading
Personal Weather Stations






























Interactive Weather Map New forecast layout! Learn more

10-Day Weather Forecast

Advertisements
Track Severe Weather on mobile